Time;durP1;ratioP1;P1;durP2;ratioP2;P2;SDS_P1;SDS_P2;PMS_P1;PMS_P2;Temp;Humidity;BMP_temperature;BMP_pressure;BME280_temperature;BME280_humidity;BME280_pressure;Samples;Min_cycle;Max_cycle;Signal;HPM_P1;HPM_P2
2022/12/01 00:00:43;;;;;;;14.68;8.70;;;20.60;41.50;;;;;;5054863;28;20408;-54
2022/12/01 00:03:09;;;;;;;12.95;7.93;;;20.60;41.50;;;;;;5051601;28;20479;-56
2022/12/01 00:05:35;;;;;;;12.73;8.68;;;20.60;41.50;;;;;;5049095;28;20033;-55
2022/12/01 00:08:01;;;;;;;11.57;7.60;;;20.70;41.50;;;;;;5053376;28;20021;-54
2022/12/01 00:10:27;;;;;;;11.57;7.85;;;20.60;41.40;;;;;;5054715;28;20033;-53
2022/12/01 00:12:59;;;;;;;12.20;8.38;;;20.60;41.30;;;;;;5053770;28;20029;-52
2022/12/01 00:15:27;;;;;;;11.02;8.10;;;20.60;41.30;;;;;;5054725;28;20348;-57
2022/12/01 00:17:52;;;;;;;12.02;7.90;;;20.60;41.30;;;;;;5038724;28;20163;-52
2022/12/01 00:20:18;;;;;;;12.02;8.13;;;20.60;41.30;;;;;;5047626;28;20421;-52
2022/12/01 00:22:45;;;;;;;11.40;8.13;;;20.60;41.20;;;;;;5034815;28;20038;-51
2022/12/01 00:25:13;;;;;;;12.95;8.38;;;20.60;41.20;;;;;;5038486;28;20437;-54
2022/12/01 00:27:39;;;;;;;11.70;8.02;;;20.60;41.20;;;;;;5034827;28;20060;-54
2022/12/01 00:30:07;;;;;;;13.52;8.63;;;20.60;41.20;;;;;;5051492;28;20060;-54
2022/12/01 00:32:33;;;;;;;13.25;8.70;;;20.60;41.20;;;;;;5054433;28;20025;-54
2022/12/01 00:34:59;;;;;;;12.60;8.55;;;20.50;41.10;;;;;;5053933;28;20037;-52
2022/12/01 00:37:25;;;;;;;12.05;8.32;;;20.50;41.00;;;;;;5036614;28;20040;-54
2022/12/01 00:39:50;;;;;;;13.93;8.45;;;20.50;41.10;;;;;;5034188;28;20136;-52
2022/12/01 00:42:19;;;;;;;11.68;8.15;;;20.60;41.20;;;;;;5034738;28;20445;-55
2022/12/01 00:44:46;;;;;;;13.68;8.57;;;20.60;41.20;;;;;;5034896;28;20064;-54
2022/12/01 00:47:12;;;;;;;12.75;8.63;;;20.50;41.10;;;;;;5034698;28;20034;-54
2022/12/01 00:49:38;;;;;;;11.07;8.00;;;20.50;41.20;;;;;;5034974;28;20112;-53
2022/12/01 00:52:04;;;;;;;11.02;8.27;;;20.50;41.10;;;;;;5034138;28;20176;-55
2022/12/01 00:54:31;;;;;;;13.23;8.75;;;20.50;41.70;;;;;;5034428;28;20029;-53
2022/12/01 00:56:58;;;;;;;11.48;8.40;;;20.50;41.10;;;;;;5034316;28;20038;-51
2022/12/01 00:59:24;;;;;;;12.80;8.80;;;20.50;41.10;;;;;;5034731;28;20112;-51
2022/12/01 01:01:50;;;;;;;12.80;8.63;;;20.50;41.10;;;;;;5047583;28;20040;-55
2022/12/01 01:04:17;;;;;;;13.73;9.25;;;20.50;41.10;;;;;;5053434;28;20117;-57
2022/12/01 01:06:43;;;;;;;13.88;9.27;;;20.50;41.00;;;;;;5057830;28;20043;-55
2022/12/01 01:09:10;;;;;;;10.80;8.38;;;20.50;41.00;;;;;;5056004;28;20432;-55
2022/12/01 01:11:36;;;;;;;12.75;8.85;;;20.50;41.60;;;;;;5038997;28;20041;-54
2022/12/01 01:14:02;;;;;;;12.55;8.88;;;20.50;41.00;;;;;;5038034;28;20033;-55
2022/12/01 01:16:29;;;;;;;12.18;9.18;;;20.50;40.90;;;;;;5049769;28;20033;-54
2022/12/01 01:18:56;;;;;;;11.73;8.60;;;20.50;40.90;;;;;;5051043;28;20037;-55
2022/12/01 01:21:23;;;;;;;11.80;8.27;;;20.50;40.90;;;;;;5038435;28;20087;-53
2022/12/01 01:23:50;;;;;;;12.48;8.98;;;20.50;40.90;;;;;;5037687;28;20136;-52
2022/12/01 01:26:29;;;;;;;11.90;8.40;;;20.50;40.90;;;;;;5046312;28;20415;-53
2022/12/01 01:29:03;;;;;;;11.02;8.85;;;20.40;40.90;;;;;;5043484;28;20503;-52
2022/12/01 01:31:30;;;;;;;11.15;8.38;;;20.40;40.90;;;;;;5052005;28;20071;-53
2022/12/01 01:33:56;;;;;;;13.23;9.15;;;20.40;40.90;;;;;;5049117;28;20029;-53
2022/12/01 01:36:23;;;;;;;15.55;9.50;;;20.40;40.90;;;;;;5036907;28;20518;-52
2022/12/01 01:38:50;;;;;;;11.05;8.57;;;20.40;40.90;;;;;;5039216;28;20033;-54
2022/12/01 01:41:17;;;;;;;11.85;8.82;;;20.40;40.90;;;;;;5037691;28;20124;-53
2022/12/01 01:43:49;;;;;;;10.93;8.60;;;20.40;40.90;;;;;;5037218;28;20108;-49
2022/12/01 01:46:26;;;;;;;10.85;8.20;;;20.40;40.90;;;;;;5041321;28;20033;-54
2022/12/01 01:49:04;;;;;;;12.02;8.93;;;20.40;40.90;;;;;;5048675;28;20021;-53
2022/12/01 01:51:32;;;;;;;12.75;8.43;;;20.40;40.90;;;;;;5055842;28;20049;-56
2022/12/01 01:54:03;;;;;;;13.73;8.85;;;20.40;40.90;;;;;;5056486;28;20036;-54
2022/12/01 01:56:29;;;;;;;12.65;9.30;;;20.40;40.90;;;;;;5057375;28;20148;-52
2022/12/01 01:58:56;;;;;;;10.45;8.73;;;20.40;40.80;;;;;;5039092;28;20421;-53
2022/12/01 02:01:22;;;;;;;12.43;9.07;;;20.40;40.80;;;;;;5039262;28;21889;-55
2022/12/01 02:03:51;;;;;;;11.93;8.95;;;20.40;40.90;;;;;;5056498;28;20085;-56
2022/12/01 02:06:17;;;;;;;11.02;8.63;;;20.40;40.80;;;;;;5056585;28;20456;-54
2022/12/01 02:08:42;;;;;;;11.68;8.82;;;20.30;40.80;;;;;;5045098;28;20101;-55
2022/12/01 02:11:17;;;;;;;11.10;8.23;;;20.30;40.80;;;;;;5052797;28;20078;-51
2022/12/01 02:13:42;;;;;;;;;;;20.40;40.80;;;;;;5053996;28;20098;-55
2022/12/01 02:16:18;;;;;;;12.35;8.85;;;20.40;40.80;;;;;;5055695;28;19967;-54
2022/12/01 02:19:38;;;;;;;12.73;9.50;;;20.30;40.80;;;;;;5042321;28;20115;-52
2022/12/01 02:22:35;;;;;;;13.93;8.65;;;20.30;40.90;;;;;;4975910;28;20133;-54
2022/12/01 02:25:04;;;;;;;12.32;9.02;;;20.30;41.10;;;;;;5036220;28;20400;-51
2022/12/01 02:27:55;;;;;;;12.43;9.30;;;20.30;41.00;;;;;;5037187;28;20033;-52
2022/12/01 02:30:53;;;;;;;11.35;8.35;;;20.30;41.00;;;;;;5044428;28;20033;-54
2022/12/01 02:33:32;;;;;;;11.77;8.98;;;20.30;41.00;;;;;;5035204;28;20049;-54
2022/12/01 02:36:10;;;;;;;12.98;9.48;;;20.30;41.00;;;;;;5044056;28;20116;-53
2022/12/01 02:38:50;;;;;;;13.38;9.73;;;20.30;41.00;;;;;;5054157;28;20106;-48
2022/12/01 02:41:23;;;;;;;13.15;9.07;;;20.30;41.00;;;;;;5038289;28;20128;-52
2022/12/01 02:43:56;;;;;;;13.85;8.85;;;20.30;41.00;;;;;;5055718;28;20364;-54
2022/12/01 02:46:30;;;;;;;11.88;8.48;;;20.30;41.00;;;;;;5037022;28;20033;-52
2022/12/01 02:49:00;;;;;;;14.68;9.77;;;20.30;41.00;;;;;;5036012;28;20030;-54
2022/12/01 02:51:29;;;;;;;12.38;9.20;;;20.30;41.00;;;;;;5044687;28;20199;-52
2022/12/01 02:53:59;;;;;;;12.75;9.13;;;20.30;41.00;;;;;;5035284;28;20030;-54
2022/12/01 02:56:25;;;;;;;14.13;10.20;;;20.20;40.90;;;;;;5035884;28;20048;-52
2022/12/01 02:58:51;;;;;;;14.75;10.02;;;20.20;40.90;;;;;;5036037;28;20030;-54
2022/12/01 03:01:31;;;;;;;12.85;9.23;;;20.20;40.90;;;;;;5040215;28;20047;-54
2022/12/01 03:04:12;;;;;;;13.60;9.00;;;20.30;41.00;;;;;;5054967;28;20506;-52
2022/12/01 03:06:38;;;;;;;14.38;9.63;;;20.20;40.90;;;;;;5027048;28;20383;-52
2022/12/01 03:09:21;;;;;;;13.45;9.88;;;20.20;41.00;;;;;;5048780;28;20029;-53
2022/12/01 03:12:14;;;;;;;14.57;10.35;;;20.20;41.00;;;;;;5035010;28;20037;-55
2022/12/01 03:14:49;;;;;;;12.90;9.00;;;20.20;41.00;;;;;;5038630;28;20045;-54
2022/12/01 03:17:19;;;;;;;14.68;9.90;;;20.20;41.00;;;;;;5053793;28;20032;-51
2022/12/01 03:19:47;;;;;;;13.93;10.18;;;20.20;41.10;;;;;;5055043;28;20106;-53
2022/12/01 03:22:25;;;;;;;13.80;10.10;;;20.20;41.10;;;;;;5054879;28;20036;-50
2022/12/01 03:24:54;;;;;;;14.65;10.45;;;20.20;41.10;;;;;;5054750;28;20028;-54
2022/12/01 03:27:26;;;;;;;16.75;11.45;;;20.20;41.10;;;;;;5052815;28;20032;-53
2022/12/01 03:29:55;;;;;;;14.60;10.00;;;20.20;41.10;;;;;;5047789;28;20041;-54
2022/12/01 03:32:26;;;;;;;13.82;9.60;;;20.20;41.10;;;;;;5055121;28;20033;-54
2022/12/01 03:35:13;;;;;;;15.10;10.30;;;20.20;41.00;;;;;;5055236;28;20043;-54
2022/12/01 03:37:49;;;;;;;13.32;9.60;;;20.20;41.00;;;;;;5052401;28;20083;-49
2022/12/01 03:40:18;;;;;;;14.77;10.38;;;20.20;41.60;;;;;;5052351;28;20028;-56
2022/12/01 03:42:54;;;;;;;17.25;11.30;;;20.20;41.10;;;;;;5055227;28;20028;-53
2022/12/01 03:45:40;;;;;;;16.75;11.13;;;20.20;41.00;;;;;;5054388;28;20028;-54
2022/12/01 03:48:06;;;;;;;15.02;10.02;;;20.20;41.00;;;;;;5053597;28;20029;-53
2022/12/01 03:51:03;;;;;;;13.25;9.68;;;20.20;41.00;;;;;;5053122;28;20090;-53
2022/12/01 03:53:39;;;;;;;14.77;9.95;;;20.10;41.00;;;;;;5035184;28;20052;-51
2022/12/01 03:56:07;;;;;;;14.52;10.15;;;20.20;41.00;;;;;;5035064;28;20037;-54
2022/12/01 03:58:38;;;;;;;13.23;9.57;;;20.10;40.90;;;;;;5042499;28;20037;-53
2022/12/01 04:01:06;;;;;;;16.45;10.07;;;20.10;40.90;;;;;;5054698;28;20051;-53
2022/12/01 04:03:32;;;;;;;15.35;10.27;;;20.10;41.00;;;;;;5053644;28;20033;-55
2022/12/01 04:05:58;;;;;;;15.13;9.70;;;20.10;40.90;;;;;;5048356;28;20121;-54
2022/12/01 04:08:24;;;;;;;15.68;9.93;;;20.10;40.90;;;;;;5036107;28;20108;-52
2022/12/01 04:10:50;;;;;;;12.55;9.43;;;20.10;40.90;;;;;;5039511;28;20072;-54
2022/12/01 04:13:21;;;;;;;14.75;10.13;;;20.10;41.00;;;;;;5048292;28;20465;-55
2022/12/01 04:15:53;;;;;;;14.57;10.13;;;20.10;40.90;;;;;;5048750;28;20052;-54
2022/12/01 04:18:20;;;;;;;13.13;9.25;;;20.10;40.90;;;;;;5035837;28;20026;-50
2022/12/01 04:20:47;;;;;;;15.45;10.35;;;20.10;40.90;;;;;;5034597;28;20053;-55
2022/12/01 04:23:58;;;;;;;13.50;9.63;;;20.10;40.90;;;;;;5034603;28;20359;-54
2022/12/01 04:26:00;;;;;;;14.13;10.13;;;20.10;40.90;;;;;;5034222;28;20029;-52
2022/12/01 04:28:26;;;;;;;15.35;10.32;;;20.10;40.90;;;;;;5042353;28;20033;-52
2022/12/01 04:30:52;;;;;;;15.15;9.73;;;20.10;41.00;;;;;;5041991;28;20045;-56
2022/12/01 04:33:18;;;;;;;14.90;9.68;;;20.10;41.10;;;;;;5035826;28;20037;-51
2022/12/01 04:35:44;;;;;;;13.57;9.60;;;20.10;41.00;;;;;;5024211;28;20095;-54
2022/12/01 04:38:10;;;;;;;12.55;9.40;;;20.10;41.10;;;;;;5052225;28;20045;-54
2022/12/01 04:40:37;;;;;;;13.40;9.73;;;20.10;41.10;;;;;;5044960;28;20025;-54
2022/12/01 04:43:03;;;;;;;12.73;9.48;;;20.10;41.10;;;;;;5057727;28;20033;-55
2022/12/01 04:45:29;;;;;;;14.23;9.65;;;20.10;41.00;;;;;;5058242;28;20059;-54
2022/12/01 04:47:55;;;;;;;12.23;9.60;;;20.10;41.00;;;;;;5052914;28;20053;-54
2022/12/01 04:50:21;;;;;;;13.02;9.48;;;20.00;40.90;;;;;;5037996;28;20098;-53
2022/12/01 04:52:46;;;;;;;12.77;9.07;;;20.00;40.90;;;;;;5038216;28;20029;-54
2022/12/01 04:55:14;;;;;;;14.40;8.95;;;20.00;40.90;;;;;;5038155;28;20046;-56
2022/12/01 04:57:40;;;;;;;12.70;9.70;;;20.10;41.00;;;;;;5038068;28;20709;-55
2022/12/01 05:00:11;;;;;;;11.63;8.70;;;20.00;40.90;;;;;;5058144;28;20029;-55
2022/12/01 05:02:41;;;;;;;13.52;9.60;;;20.00;40.90;;;;;;5057821;28;20037;-52
2022/12/01 05:05:11;;;;;;;13.30;9.63;;;20.00;40.90;;;;;;5055767;28;20036;-55
2022/12/01 05:07:36;;;;;;;12.80;9.40;;;20.00;40.80;;;;;;5038864;28;20090;-54
2022/12/01 05:10:03;;;;;;;12.05;8.90;;;20.00;40.80;;;;;;5040876;28;20033;-53
2022/12/01 05:12:29;;;;;;;12.40;8.90;;;20.00;40.80;;;;;;5044426;28;20029;-52
2022/12/01 05:14:55;;;;;;;14.10;9.35;;;20.00;40.80;;;;;;5037586;28;20036;-53
2022/12/01 05:17:21;;;;;;;13.15;9.27;;;20.00;40.80;;;;;;5048990;28;20089;-56
2022/12/01 05:22:31;;;;;;;12.35;9.18;;;20.00;40.80;;;;;;5045869;28;20104;-52
2022/12/01 05:24:57;;;;;;;13.63;9.10;;;20.00;40.80;;;;;;5055898;28;20063;-55
2022/12/01 05:27:22;;;;;;;11.25;8.75;;;20.00;40.80;;;;;;5037441;28;20064;-55
2022/12/01 05:29:48;;;;;;;12.95;9.32;;;20.00;40.80;;;;;;5057116;28;20433;-56
2022/12/01 05:32:14;;;;;;;12.85;8.80;;;20.00;40.80;;;;;;5056998;28;20067;-54
2022/12/01 05:34:40;;;;;;;11.35;8.30;;;20.00;40.80;;;;;;5055981;28;20056;-55
2022/12/01 05:37:05;;;;;;;11.60;8.50;;;20.00;40.70;;;;;;5057352;28;20029;-56
2022/12/01 05:39:31;;;;;;;11.68;8.45;;;20.00;40.80;;;;;;5051541;28;20044;-53
2022/12/01 05:41:57;;;;;;;12.23;8.70;;;19.90;40.70;;;;;;5056739;28;20068;-53
2022/12/01 05:44:23;;;;;;;10.63;8.15;;;20.00;40.70;;;;;;5057550;28;20028;-54
2022/12/01 05:46:49;;;;;;;10.93;8.43;;;20.00;40.70;;;;;;5047198;28;20025;-52
2022/12/01 05:49:14;;;;;;;12.85;8.60;;;20.00;40.70;;;;;;5051684;28;20037;-53
2022/12/01 05:51:42;;;;;;;11.80;8.80;;;20.00;40.80;;;;;;5056698;28;20033;-52
2022/12/01 05:54:08;;;;;;;12.23;9.07;;;20.00;40.70;;;;;;5056852;28;20120;-54
2022/12/01 05:56:34;;;;;;;11.82;8.52;;;19.90;40.60;;;;;;5056386;28;20431;-53
2022/12/01 05:59:00;;;;;;;11.65;8.52;;;19.90;40.70;;;;;;5043812;28;20061;-53
2022/12/01 06:01:26;;;;;;;11.55;8.65;;;20.00;40.70;;;;;;5038830;28;20040;-57
2022/12/01 06:03:52;;;;;;;11.90;8.45;;;19.90;40.60;;;;;;5054691;28;20040;-53
2022/12/01 06:06:18;;;;;;;11.32;8.90;;;19.90;40.60;;;;;;5036743;28;20064;-54
2022/12/01 06:08:44;;;;;;;11.65;8.82;;;19.90;40.70;;;;;;5037745;28;20124;-57
2022/12/01 06:11:10;;;;;;;11.95;8.63;;;19.90;40.70;;;;;;5047139;28;20115;-53
2022/12/01 06:13:36;;;;;;;12.45;9.07;;;19.90;40.70;;;;;;5055124;28;20037;-55
2022/12/01 06:16:04;;;;;;;11.27;8.75;;;19.90;40.70;;;;;;5055781;28;20041;-56
2022/12/01 06:18:32;;;;;;;11.57;8.68;;;19.90;40.70;;;;;;5054367;28;20521;-55
2022/12/01 06:20:58;;;;;;;11.68;8.93;;;19.90;40.70;;;;;;5056928;28;20052;-54
2022/12/01 06:23:24;;;;;;;11.70;9.18;;;19.90;40.70;;;;;;5049353;28;20038;-56
2022/12/01 06:25:50;;;;;;;13.68;9.57;;;19.90;40.70;;;;;;5052579;28;20087;-52
2022/12/01 06:28:16;;;;;;;11.55;8.63;;;19.90;40.70;;;;;;5047206;28;20037;-52
2022/12/01 06:30:42;;;;;;;13.48;9.38;;;19.90;40.70;;;;;;5036468;28;20032;-55
2022/12/01 06:33:08;;;;;;;12.18;9.23;;;19.90;40.70;;;;;;5041290;28;20032;-56
2022/12/01 06:35:34;;;;;;;12.57;9.40;;;19.90;40.80;;;;;;5036434;28;20038;-53
2022/12/01 06:38:00;;;;;;;13.25;9.90;;;19.90;40.70;;;;;;5036110;28;20112;-52
2022/12/01 06:40:27;;;;;;;14.55;10.68;;;19.90;40.60;;;;;;5036013;28;20113;-54
2022/12/01 06:42:52;;;;;;;15.23;9.98;;;19.80;40.50;;;;;;5029978;28;20032;-53
2022/12/01 06:45:18;;;;;;;14.00;9.65;;;19.90;40.60;;;;;;5055825;28;20055;-53
2022/12/01 06:47:47;;;;;;;13.35;10.10;;;19.90;40.50;;;;;;5038530;28;20029;-56
2022/12/01 06:50:12;;;;;;;13.80;10.07;;;19.90;40.50;;;;;;5051694;28;20379;-53
2022/12/01 06:52:38;;;;;;;13.25;9.35;;;19.90;40.50;;;;;;5051758;28;20115;-52
2022/12/01 06:55:05;;;;;;;13.32;9.57;;;19.90;40.50;;;;;;5056186;28;20040;-53
2022/12/01 06:57:31;;;;;;;14.52;10.45;;;19.90;40.50;;;;;;5055185;28;20387;-52
2022/12/01 06:59:57;;;;;;;13.98;10.27;;;19.90;40.50;;;;;;5049548;28;20039;-56
2022/12/01 07:02:22;;;;;;;15.18;10.32;;;19.90;40.50;;;;;;5039334;28;20341;-51
2022/12/01 07:04:48;;;;;;;14.90;10.38;;;19.80;40.50;;;;;;5040863;28;20063;-54
2022/12/01 07:07:14;;;;;;;15.18;10.57;;;19.80;40.50;;;;;;5041576;28;20038;-54
2022/12/01 07:09:40;;;;;;;13.10;9.70;;;19.80;40.60;;;;;;5046738;28;20432;-56
2022/12/01 07:12:06;;;;;;;15.30;10.93;;;19.80;40.60;;;;;;5055853;28;20071;-51
2022/12/01 07:14:32;;;;;;;15.25;10.70;;;19.80;40.50;;;;;;5052643;28;20029;-56
2022/12/01 07:16:58;;;;;;;14.48;10.77;;;19.80;40.60;;;;;;5044967;28;20033;-55
2022/12/01 07:19:24;;;;;;;14.52;10.60;;;19.80;40.60;;;;;;5049226;28;20036;-53
2022/12/01 07:21:50;;;;;;;16.08;11.32;;;19.80;40.60;;;;;;5055346;28;20036;-54
2022/12/01 07:24:16;;;;;;;15.55;11.20;;;19.80;40.60;;;;;;5041084;28;20112;-51
2022/12/01 07:26:42;;;;;;;18.35;11.15;;;19.80;40.70;;;;;;5050645;28;20864;-55
2022/12/01 07:29:09;;;;;;;26.67;10.82;;;19.80;40.80;;;;;;5053594;28;20025;-55
2022/12/01 07:31:36;;;;;;;15.43;10.70;;;19.80;40.80;;;;;;5051345;28;20043;-53
2022/12/01 07:34:02;;;;;;;14.57;10.32;;;19.80;40.90;;;;;;5041515;28;20045;-52
2022/12/01 07:36:28;;;;;;;15.10;10.20;;;19.80;41.00;;;;;;5043287;28;20037;-53
2022/12/01 07:38:54;;;;;;;16.58;11.15;;;19.80;41.00;;;;;;5045222;28;20021;-53
2022/12/01 07:41:20;;;;;;;17.08;11.18;;;19.80;40.90;;;;;;5037009;28;20364;-55
2022/12/01 07:43:49;;;;;;;15.90;10.80;;;19.80;40.90;;;;;;5054185;28;20102;-52
2022/12/01 07:46:18;;;;;;;15.43;10.52;;;19.80;40.90;;;;;;5052264;28;20044;-53
2022/12/01 07:48:43;;;;;;;15.65;10.82;;;19.80;40.80;;;;;;5038712;28;20018;-52
2022/12/01 07:51:12;;;;;;;15.75;10.77;;;19.80;40.80;;;;;;5034504;28;20492;-56
2022/12/01 07:53:38;;;;;;;16.30;10.65;;;19.80;40.90;;;;;;5035097;28;20040;-53
2022/12/01 07:56:05;;;;;;;14.82;10.05;;;19.80;40.80;;;;;;5039835;28;20045;-52
2022/12/01 07:58:31;;;;;;;16.35;10.98;;;19.90;40.80;;;;;;5047439;28;20029;-55
2022/12/01 08:00:57;;;;;;;15.48;10.40;;;19.90;40.80;;;;;;5034794;28;20109;-52
2022/12/01 08:03:23;;;;;;;14.90;10.50;;;19.90;40.70;;;;;;5052931;28;20029;-54
2022/12/01 08:05:59;;;;;;;17.40;11.55;;;20.00;40.70;;;;;;5054534;28;20040;-51
2022/12/01 08:08:26;;;;;;;15.60;10.18;;;20.00;41.30;;;;;;5040836;28;20144;-54
2022/12/01 08:10:52;;;;;;;15.35;11.00;;;20.10;40.60;;;;;;5051046;28;20049;-51
2022/12/01 08:13:19;;;;;;;16.95;11.00;;;20.10;40.60;;;;;;5058628;28;20048;-55
2022/12/01 08:15:45;;;;;;;17.13;11.05;;;20.20;40.50;;;;;;5052314;28;20052;-55
2022/12/01 08:18:11;;;;;;;16.15;10.82;;;20.20;40.50;;;;;;5033176;28;20123;-51
2022/12/01 08:20:37;;;;;;;15.73;10.80;;;20.30;40.40;;;;;;5051543;28;20049;-53
2022/12/01 08:23:04;;;;;;;18.02;12.13;;;20.30;40.30;;;;;;5044244;28;20341;-50
2022/12/01 08:25:29;;;;;;;17.25;11.45;;;20.30;40.20;;;;;;5045367;28;20084;-54
2022/12/01 08:27:56;;;;;;;17.92;11.52;;;20.30;40.20;;;;;;5044376;28;20032;-55
2022/12/01 08:30:22;;;;;;;16.60;11.15;;;20.40;40.20;;;;;;5046787;28;20094;-52
2022/12/01 08:32:48;;;;;;;18.33;12.32;;;20.50;40.10;;;;;;5052746;28;20025;-54
2022/12/01 08:35:14;;;;;;;17.33;10.95;;;20.50;40.00;;;;;;5056382;28;20104;-55
2022/12/01 08:37:40;;;;;;;17.00;11.95;;;20.50;39.90;;;;;;5049279;28;20040;-54
2022/12/01 08:40:06;;;;;;;15.35;10.77;;;20.60;39.90;;;;;;5042022;28;20022;-52
2022/12/01 08:42:32;;;;;;;18.48;11.68;;;20.60;39.80;;;;;;5054611;28;20033;-55
2022/12/01 08:44:58;;;;;;;17.95;11.60;;;20.70;39.70;;;;;;5057776;28;20029;-52
2022/12/01 08:47:23;;;;;;;15.93;11.13;;;20.70;39.70;;;;;;5050627;28;20038;-51
2022/12/01 08:49:49;;;;;;;17.17;11.50;;;20.70;39.50;;;;;;5038857;28;20478;-55
2022/12/01 08:52:15;;;;;;;16.02;10.75;;;20.80;39.50;;;;;;5037954;28;20034;-54
2022/12/01 08:54:41;;;;;;;16.02;11.77;;;20.80;39.50;;;;;;5051055;28;20075;-54
2022/12/01 08:57:06;;;;;;;17.80;11.43;;;20.80;39.30;;;;;;5052804;28;20065;-53
2022/12/01 08:59:32;;;;;;;17.27;11.05;;;20.80;39.30;;;;;;5037855;28;20029;-51
2022/12/01 09:01:58;;;;;;;14.60;10.68;;;20.90;39.20;;;;;;5038471;28;20088;-54
2022/12/01 09:04:25;;;;;;;16.42;11.43;;;20.90;39.20;;;;;;5038068;28;20033;-54
2022/12/01 09:06:53;;;;;;;16.75;11.82;;;20.90;39.10;;;;;;5039093;28;20048;-56
2022/12/01 09:09:22;;;;;;;16.58;11.48;;;21.00;39.10;;;;;;5053564;28;20122;-56
2022/12/01 09:11:51;;;;;;;17.38;11.80;;;21.00;39.00;;;;;;5057939;28;20025;-55
2022/12/01 09:14:18;;;;;;;15.80;11.00;;;20.90;39.00;;;;;;5057845;28;20101;-53
2022/12/01 09:16:45;;;;;;;16.48;10.98;;;21.00;38.90;;;;;;5049380;28;20040;-56
2022/12/01 09:19:13;;;;;;;16.10;12.00;;;20.90;38.80;;;;;;5055328;28;20065;-54
2022/12/01 09:21:41;;;;;;;18.58;11.70;;;21.00;38.80;;;;;;5057082;28;20417;-54
2022/12/01 09:24:09;;;;;;;17.85;12.25;;;21.00;38.80;;;;;;5056562;28;20040;-56
2022/12/01 09:26:35;;;;;;;16.92;11.65;;;21.00;38.70;;;;;;5047077;28;20356;-53
2022/12/01 09:29:03;;;;;;;19.05;12.68;;;21.00;38.70;;;;;;5054863;28;20021;-54
2022/12/01 09:31:29;;;;;;;19.30;12.32;;;21.00;38.60;;;;;;5052093;28;20029;-54
2022/12/01 09:34:01;;;;;;;16.92;11.60;;;21.00;38.60;;;;;;5050046;28;20025;-52
2022/12/01 09:36:29;;;;;;;18.33;12.57;;;21.00;38.80;;;;;;5040173;28;20055;-53
2022/12/01 09:38:55;;;;;;;18.88;12.18;;;21.00;38.80;;;;;;5037179;28;20033;-54
2022/12/01 09:41:46;;;;;;;17.70;11.50;;;21.00;38.90;;;;;;5037375;28;20044;-52
2022/12/01 09:44:46;;;;;;;17.88;12.32;;;21.00;38.90;;;;;;5037100;28;20441;-53
2022/12/01 09:47:19;;;;;;;16.48;11.13;;;21.00;38.90;;;;;;5052623;28;20033;-54
2022/12/01 09:50:03;;;;;;;16.05;11.80;;;21.00;38.90;;;;;;5057099;28;20116;-56
2022/12/01 09:52:40;;;;;;;16.33;11.25;;;21.00;38.90;;;;;;5056669;28;20456;-53
2022/12/01 09:55:12;;;;;;;16.13;11.48;;;21.00;38.90;;;;;;5042405;28;20041;-51
2022/12/01 09:57:39;;;;;;;16.88;11.15;;;21.00;38.90;;;;;;5051173;28;20033;-48
2022/12/01 10:00:30;;;;;;;17.17;11.95;;;21.00;38.90;;;;;;5037036;28;20418;-52
2022/12/01 10:03:08;;;;;;;19.88;12.98;;;21.00;38.80;;;;;;5037000;28;20033;-56
2022/12/01 10:05:48;;;;;;;18.05;12.35;;;21.00;38.80;;;;;;5055169;28;20349;-55
2022/12/01 10:08:18;;;;;;;17.42;11.77;;;21.00;38.80;;;;;;5047217;28;20025;-50
2022/12/01 10:10:49;;;;;;;14.63;11.40;;;21.00;38.80;;;;;;5051221;28;20310;-56
2022/12/01 10:13:27;;;;;;;17.67;11.68;;;21.00;38.80;;;;;;5056552;28;20033;-53
2022/12/01 10:15:52;;;;;;;16.27;11.50;;;21.00;38.80;;;;;;5056118;28;20353;-55
2022/12/01 10:18:37;;;;;;;16.08;10.88;;;20.90;38.70;;;;;;5040236;28;20036;-53
2022/12/01 10:21:29;;;;;;;15.10;10.98;;;21.00;38.70;;;;;;5056030;28;20079;-56
2022/12/01 10:24:22;;;;;;;16.65;11.27;;;20.90;38.70;;;;;;5056215;28;20472;-51
2022/12/01 10:27:17;;;;;;;17.70;11.85;;;21.00;38.70;;;;;;5056606;28;20536;-54
2022/12/01 10:29:47;;;;;;;14.80;10.75;;;21.00;38.70;;;;;;5036827;28;20044;-54
2022/12/01 10:32:39;;;;;;;15.13;11.07;;;20.90;38.60;;;;;;5018635;28;20427;-56
2022/12/01 10:35:05;;;;;;;16.65;11.18;;;20.90;38.60;;;;;;5043904;28;20049;-52
2022/12/01 10:37:31;;;;;;;16.73;11.55;;;20.90;38.60;;;;;;5041847;28;20038;-53
2022/12/01 10:39:57;;;;;;;16.33;10.85;;;20.90;38.70;;;;;;5052956;28;20116;-51
2022/12/01 10:42:40;;;;;;;14.40;9.73;;;20.90;38.70;;;;;;5046043;28;20377;-50
2022/12/01 10:45:27;;;;;;;16.48;11.38;;;20.90;38.80;;;;;;5039240;28;20376;-52
2022/12/01 10:48:08;;;;;;;15.55;10.82;;;21.00;38.90;;;;;;5040105;28;20365;-54
2022/12/01 10:50:35;;;;;;;16.42;11.20;;;21.00;38.80;;;;;;5035782;28;20033;-55
2022/12/01 10:53:01;;;;;;;15.75;10.75;;;21.00;38.80;;;;;;5035785;28;20117;-54
2022/12/01 10:55:34;;;;;;;16.10;11.38;;;21.00;38.80;;;;;;5055298;28;20043;-52
2022/12/01 10:58:12;;;;;;;15.27;11.38;;;21.00;38.80;;;;;;5043699;28;20115;-52
2022/12/01 11:00:43;;;;;;;14.90;11.07;;;21.00;38.70;;;;;;5049672;28;20021;-55
2022/12/01 11:03:21;;;;;;;13.85;10.35;;;21.00;38.70;;;;;;5028669;28;20037;-57
2022/12/01 11:05:53;;;;;;;15.32;11.02;;;21.00;38.80;;;;;;5035899;28;20037;-49
2022/12/01 11:08:42;;;;;;;19.50;11.60;;;21.00;39.20;;;;;;5039800;28;20028;-51
2022/12/01 11:11:32;;;;;;;20.95;11.82;;;21.10;39.50;;;;;;5036055;28;20113;-54
2022/12/01 11:14:00;;;;;;;15.02;10.38;;;21.10;39.50;;;;;;5049131;28;20133;-54
2022/12/01 11:16:44;;;;;;;17.48;11.23;;;21.20;39.50;;;;;;5049951;28;20453;-52
2022/12/01 11:19:24;;;;;;;15.48;10.65;;;21.20;39.50;;;;;;5039025;28;20029;-52
2022/12/01 11:21:53;;;;;;;16.52;10.95;;;21.20;39.50;;;;;;5051612;28;20076;-54
2022/12/01 11:24:32;;;;;;;15.95;10.77;;;21.20;39.50;;;;;;5051134;28;20063;-51
2022/12/01 11:26:59;;;;;;;14.65;10.45;;;21.20;39.60;;;;;;5054066;28;20064;-55
2022/12/01 11:29:30;;;;;;;14.23;10.13;;;21.20;39.60;;;;;;5051661;28;20476;-55
2022/12/01 11:31:58;;;;;;;14.57;10.13;;;21.20;39.70;;;;;;5038155;28;20034;-56
2022/12/01 11:34:29;;;;;;;17.23;10.70;;;21.20;39.80;;;;;;5044323;28;20455;-50
2022/12/01 11:36:59;;;;;;;14.95;10.73;;;21.20;39.90;;;;;;5048142;28;20057;-54
2022/12/01 11:39:32;;;;;;;14.80;9.95;;;21.20;40.00;;;;;;5044135;28;20040;-55
2022/12/01 11:42:04;;;;;;;13.75;9.15;;;21.20;40.00;;;;;;5052973;28;20041;-53
2022/12/01 11:44:33;;;;;;;13.93;9.18;;;21.20;40.00;;;;;;5050364;28;20075;-55
2022/12/01 11:47:20;;;;;;;12.82;9.10;;;21.30;40.00;;;;;;5053616;28;20033;-53
2022/12/01 11:50:01;;;;;;;12.63;9.10;;;21.30;40.00;;;;;;5055185;28;20043;-53
2022/12/01 11:52:33;;;;;;;14.68;9.27;;;21.30;39.90;;;;;;5045774;28;20029;-55
2022/12/01 11:55:02;;;;;;;16.60;10.00;;;21.30;39.90;;;;;;5046914;28;20037;-54
2022/12/01 11:57:29;;;;;;;12.48;9.27;;;21.30;39.90;;;;;;5043974;28;20029;-55
2022/12/01 11:59:55;;;;;;;13.70;9.98;;;21.30;39.90;;;;;;5039514;28;20109;-51
2022/12/01 12:02:40;;;;;;;13.32;9.77;;;21.30;39.90;;;;;;5042007;28;20409;-54
2022/12/01 12:05:24;;;;;;;16.52;9.73;;;21.30;39.90;;;;;;5035061;28;20044;-55
2022/12/01 12:08:08;;;;;;;11.93;8.73;;;21.30;39.80;;;;;;5034510;28;20084;-54
2022/12/01 12:10:54;;;;;;;13.55;8.73;;;21.30;39.80;;;;;;5035076;28;20035;-53
2022/12/01 12:13:29;;;;;;;11.77;8.50;;;21.30;40.20;;;;;;5042353;28;20447;-56
2022/12/01 12:16:21;;;;;;;11.50;8.70;;;21.30;40.50;;;;;;5054740;28;20048;-57
2022/12/01 12:19:10;;;;;;;13.77;8.50;;;21.30;40.40;;;;;;5046943;28;20102;-55
2022/12/01 12:21:57;;;;;;;11.50;8.55;;;21.30;40.30;;;;;;5036247;28;20049;-56
2022/12/01 12:24:32;;;;;;;13.50;9.00;;;21.30;40.10;;;;;;5054408;28;20142;-53
2022/12/01 12:27:11;;;;;;;;;;;21.30;40.00;;;;;;5041695;28;20484;-54
2022/12/01 12:29:39;;;;;;;14.85;9.02;;;21.30;40.00;;;;;;5033220;28;20343;-57
2022/12/01 12:32:35;;;;;;;14.57;9.30;;;21.30;40.00;;;;;;5030241;28;20029;-56
2022/12/01 12:35:34;;;;;;;13.98;8.93;;;21.30;39.90;;;;;;5032775;28;20048;-57
2022/12/01 12:38:42;;;;;;;12.27;8.68;;;21.30;40.00;;;;;;5044774;28;20026;-59
2022/12/01 12:41:29;;;;;;;14.52;9.40;;;21.30;40.10;;;;;;5021540;28;20045;-59
2022/12/01 12:44:10;;;;;;;11.88;9.30;;;21.30;40.10;;;;;;5052670;28;20029;-58
2022/12/01 12:46:44;;;;;;;10.63;8.63;;;21.40;40.00;;;;;;5044763;28;20036;-56
2022/12/01 12:49:33;;;;;;;10.10;7.60;;;21.40;39.90;;;;;;5049296;28;20039;-57
2022/12/01 12:52:11;;;;;;;11.02;7.80;;;21.50;40.00;;;;;;5054828;28;20025;-55
2022/12/01 12:55:19;;;;;;;11.25;8.13;;;21.60;39.80;;;;;;5039216;28;20464;-58